sensor_id;sensor_type;location;lat;lon;timestamp;pressure;altitude;pressure_sealevel;temperature;humidity
4199;BME280;2113;50.946;14.610;2022-08-19T00:01:54;96322.59;;;22.82;59.93
4199;BME280;2113;50.946;14.610;2022-08-19T00:04:26;96325.47;;;22.88;60.37
4199;BME280;2113;50.946;14.610;2022-08-19T00:06:55;96321.22;;;22.96;59.95
4199;BME280;2113;50.946;14.610;2022-08-19T00:09:23;96319.88;;;22.92;60.32
4199;BME280;2113;50.946;14.610;2022-08-19T00:11:53;96313.91;;;22.90;60.21
4199;BME280;2113;50.946;14.610;2022-08-19T00:14:22;96318.50;;;22.87;60.44
4199;BME280;2113;50.946;14.610;2022-08-19T00:17:16;96319.47;;;22.86;60.34
4199;BME280;2113;50.946;14.610;2022-08-19T00:19:44;96322.59;;;22.82;60.57
4199;BME280;2113;50.946;14.610;2022-08-19T00:22:12;96323.03;;;22.77;60.48
4199;BME280;2113;50.946;14.610;2022-08-19T00:24:40;96326.00;;;22.74;60.56
4199;BME280;2113;50.946;14.610;2022-08-19T00:27:16;96330.16;;;22.59;61.04
4199;BME280;2113;50.946;14.610;2022-08-19T00:29:52;96325.47;;;22.43;61.43
4199;BME280;2113;50.946;14.610;2022-08-19T00:32:22;96327.38;;;22.23;62.06
4199;BME280;2113;50.946;14.610;2022-08-19T00:34:53;96324.78;;;22.13;62.23
4199;BME280;2113;50.946;14.610;2022-08-19T00:37:22;96322.16;;;22.03;62.00
4199;BME280;2113;50.946;14.610;2022-08-19T00:39:52;96327.75;;;22.00;62.71
4199;BME280;2113;50.946;14.610;2022-08-19T00:42:23;96323.91;;;21.85;62.34
4199;BME280;2113;50.946;14.610;2022-08-19T00:44:54;96323.78;;;21.77;62.46
4199;BME280;2113;50.946;14.610;2022-08-19T00:47:24;96328.28;;;21.57;64.16
4199;BME280;2113;50.946;14.610;2022-08-19T00:49:56;96329.94;;;21.67;63.98
4199;BME280;2113;50.946;14.610;2022-08-19T00:52:27;96333.56;;;21.66;64.42
4199;BME280;2113;50.946;14.610;2022-08-19T00:54:57;96329.63;;;21.70;64.36
4199;BME280;2113;50.946;14.610;2022-08-19T00:57:28;96321.59;;;21.62;64.60
4199;BME280;2113;50.946;14.610;2022-08-19T00:59:58;96324.91;;;21.74;64.33
4199;BME280;2113;50.946;14.610;2022-08-19T01:02:32;96324.94;;;21.64;64.47
4199;BME280;2113;50.946;14.610;2022-08-19T01:05:03;96324.28;;;21.33;66.08
4199;BME280;2113;50.946;14.610;2022-08-19T01:07:32;96322.19;;;21.37;66.86
4199;BME280;2113;50.946;14.610;2022-08-19T01:10:06;96319.25;;;21.49;66.47
4199;BME280;2113;50.946;14.610;2022-08-19T01:12:35;96320.22;;;21.58;66.22
4199;BME280;2113;50.946;14.610;2022-08-19T01:15:04;96314.53;;;21.34;67.35
4199;BME280;2113;50.946;14.610;2022-08-19T01:17:34;96319.56;;;21.27;67.57
4199;BME280;2113;50.946;14.610;2022-08-19T01:20:05;96325.53;;;21.19;67.82
4199;BME280;2113;50.946;14.610;2022-08-19T01:22:39;96335.25;;;21.09;67.97
4199;BME280;2113;50.946;14.610;2022-08-19T01:25:10;96327.63;;;21.16;68.28
4199;BME280;2113;50.946;14.610;2022-08-19T01:27:43;96327.22;;;21.01;68.78
4199;BME280;2113;50.946;14.610;2022-08-19T01:30:13;96329.41;;;21.05;68.63
4199;BME280;2113;50.946;14.610;2022-08-19T01:32:43;96331.38;;;20.93;69.28
4199;BME280;2113;50.946;14.610;2022-08-19T01:35:13;96324.13;;;20.86;69.98
4199;BME280;2113;50.946;14.610;2022-08-19T01:37:46;96322.75;;;20.91;69.64
4199;BME280;2113;50.946;14.610;2022-08-19T01:40:15;96331.38;;;20.93;69.53
4199;BME280;2113;50.946;14.610;2022-08-19T01:42:43;96331.63;;;20.71;70.32
4199;BME280;2113;50.946;14.610;2022-08-19T01:45:11;96333.03;;;20.75;70.53
4199;BME280;2113;50.946;14.610;2022-08-19T01:47:39;96333.03;;;20.75;70.77
4199;BME280;2113;50.946;14.610;2022-08-19T01:50:10;96330.94;;;20.69;70.95
4199;BME280;2113;50.946;14.610;2022-08-19T01:52:40;96341.94;;;20.74;70.75
4199;BME280;2113;50.946;14.610;2022-08-19T01:55:12;96357.78;;;20.74;70.81
4199;BME280;2113;50.946;14.610;2022-08-19T01:57:44;96363.06;;;20.74;70.99
4199;BME280;2113;50.946;14.610;2022-08-19T02:00:15;96358.09;;;20.90;70.14
4199;BME280;2113;50.946;14.610;2022-08-19T02:02:44;96358.91;;;20.91;70.04
4199;BME280;2113;50.946;14.610;2022-08-19T02:05:12;96371.81;;;20.84;69.59
4199;BME280;2113;50.946;14.610;2022-08-19T02:07:40;96365.09;;;20.61;71.26
4199;BME280;2113;50.946;14.610;2022-08-19T02:10:13;96367.78;;;20.80;70.67
4199;BME280;2113;50.946;14.610;2022-08-19T02:12:42;96366.81;;;20.71;71.13
4199;BME280;2113;50.946;14.610;2022-08-19T02:15:11;96363.75;;;20.76;70.72
4199;BME280;2113;50.946;14.610;2022-08-19T02:17:40;96367.09;;;20.78;71.11
4199;BME280;2113;50.946;14.610;2022-08-19T02:20:09;96379.72;;;20.65;71.06
4199;BME280;2113;50.946;14.610;2022-08-19T02:22:37;96379.16;;;20.71;70.87
4199;BME280;2113;50.946;14.610;2022-08-19T02:25:10;96375.84;;;20.79;70.39
4199;BME280;2113;50.946;14.610;2022-08-19T02:27:39;96382.16;;;20.57;71.69
4199;BME280;2113;50.946;14.610;2022-08-19T02:30:11;96384.28;;;20.63;71.13
4199;BME280;2113;50.946;14.610;2022-08-19T02:32:41;96373.34;;;20.77;70.47
4199;BME280;2113;50.946;14.610;2022-08-19T02:35:11;96378.31;;;20.61;71.18
4199;BME280;2113;50.946;14.610;2022-08-19T02:37:40;96384.03;;;20.66;70.79
4199;BME280;2113;50.946;14.610;2022-08-19T02:40:27;96384.81;;;20.57;71.25
4199;BME280;2113;50.946;14.610;2022-08-19T02:42:56;96376.88;;;20.47;71.99
4199;BME280;2113;50.946;14.610;2022-08-19T02:45:24;96381.28;;;20.46;72.08
4199;BME280;2113;50.946;14.610;2022-08-19T02:47:52;96383.41;;;20.52;71.76
4199;BME280;2113;50.946;14.610;2022-08-19T02:50:19;96379.28;;;20.60;71.61
4199;BME280;2113;50.946;14.610;2022-08-19T02:52:48;96384.69;;;20.58;72.43
4199;BME280;2113;50.946;14.610;2022-08-19T02:55:16;96384.19;;;20.74;71.87
4199;BME280;2113;50.946;14.610;2022-08-19T02:57:45;96385.31;;;20.81;71.62
4199;BME280;2113;50.946;14.610;2022-08-19T03:00:14;96392.00;;;20.95;71.00
4199;BME280;2113;50.946;14.610;2022-08-19T03:02:42;96396.47;;;20.95;71.38
4199;BME280;2113;50.946;14.610;2022-08-19T03:05:10;96402.59;;;21.05;70.90
4199;BME280;2113;50.946;14.610;2022-08-19T03:07:38;96405.53;;;21.11;70.80
4199;BME280;2113;50.946;14.610;2022-08-19T03:10:07;96406.91;;;21.25;70.23
4199;BME280;2113;50.946;14.610;2022-08-19T03:12:36;96417.88;;;21.11;70.91
4199;BME280;2113;50.946;14.610;2022-08-19T03:15:07;96420.00;;;21.37;69.99
4199;BME280;2113;50.946;14.610;2022-08-19T03:17:35;96418.63;;;21.33;70.14
4199;BME280;2113;50.946;14.610;2022-08-19T03:20:04;96420.97;;;21.55;69.85
4199;BME280;2113;50.946;14.610;2022-08-19T03:22:41;96425.59;;;21.53;69.49
4199;BME280;2113;50.946;14.610;2022-08-19T03:25:09;96428.50;;;21.60;69.61
4199;BME280;2113;50.946;14.610;2022-08-19T03:27:38;96421.00;;;21.75;68.52
4199;BME280;2113;50.946;14.610;2022-08-19T03:30:09;96416.22;;;21.88;68.06
4199;BME280;2113;50.946;14.610;2022-08-19T03:32:38;96424.03;;;21.80;68.66
4199;BME280;2113;50.946;14.610;2022-08-19T03:35:13;96432.66;;;21.72;68.84
4199;BME280;2113;50.946;14.610;2022-08-19T03:37:40;96433.81;;;21.50;69.86
4199;BME280;2113;50.946;14.610;2022-08-19T03:40:09;96429.34;;;21.60;69.66
4199;BME280;2113;50.946;14.610;2022-08-19T03:42:42;96425.44;;;21.45;70.09
4199;BME280;2113;50.946;14.610;2022-08-19T03:45:16;96431.44;;;21.57;70.02
4199;BME280;2113;50.946;14.610;2022-08-19T03:47:44;96420.16;;;21.64;69.34
4199;BME280;2113;50.946;14.610;2022-08-19T03:50:13;96417.66;;;21.53;70.16
4199;BME280;2113;50.946;14.610;2022-08-19T03:52:40;96408.19;;;21.60;69.96
4199;BME280;2113;50.946;14.610;2022-08-19T03:55:12;96407.06;;;21.53;69.81
4199;BME280;2113;50.946;14.610;2022-08-19T03:57:40;96413.22;;;21.54;70.22
4199;BME280;2113;50.946;14.610;2022-08-19T04:00:09;96410.13;;;21.58;69.99
4199;BME280;2113;50.946;14.610;2022-08-19T04:02:41;96412.09;;;21.56;70.04
4199;BME280;2113;50.946;14.610;2022-08-19T04:05:24;96419.03;;;21.47;70.29
4199;BME280;2113;50.946;14.610;2022-08-19T04:07:55;96415.00;;;21.53;70.58
4199;BME280;2113;50.946;14.610;2022-08-19T04:10:26;96418.50;;;21.63;70.35
4199;BME280;2113;50.946;14.610;2022-08-19T04:12:54;96423.78;;;21.63;70.15
4199;BME280;2113;50.946;14.610;2022-08-19T04:15:22;96419.47;;;21.62;70.40
4199;BME280;2113;50.946;14.610;2022-08-19T04:17:51;96410.41;;;21.55;70.17
4199;BME280;2113;50.946;14.610;2022-08-19T04:20:19;96408.03;;;21.72;70.01
4199;BME280;2113;50.946;14.610;2022-08-19T04:22:47;96398.44;;;21.80;69.60
4199;BME280;2113;50.946;14.610;2022-08-19T04:25:16;96396.31;;;21.94;69.00
4199;BME280;2113;50.946;14.610;2022-08-19T04:27:43;96399.47;;;21.97;68.98
4199;BME280;2113;50.946;14.610;2022-08-19T04:30:13;96400.06;;;21.91;69.05
4199;BME280;2113;50.946;14.610;2022-08-19T04:32:42;96399.47;;;21.97;69.27
4199;BME280;2113;50.946;14.610;2022-08-19T04:35:13;96386.47;;;22.14;68.82
4199;BME280;2113;50.946;14.610;2022-08-19T04:37:44;96388.25;;;22.23;67.99
4199;BME280;2113;50.946;14.610;2022-08-19T04:40:12;96397.94;;;22.52;67.29
4199;BME280;2113;50.946;14.610;2022-08-19T04:42:58;96390.13;;;22.50;67.04
4199;BME280;2113;50.946;14.610;2022-08-19T04:45:27;96389.53;;;22.56;66.60
4199;BME280;2113;50.946;14.610;2022-08-19T04:48:09;96390.19;;;22.68;66.43
4199;BME280;2113;50.946;14.610;2022-08-19T04:50:55;96388.97;;;22.62;66.71
4199;BME280;2113;50.946;14.610;2022-08-19T04:53:26;96393.59;;;22.78;66.42
4199;BME280;2113;50.946;14.610;2022-08-19T04:56:05;96394.97;;;22.82;65.83
4199;BME280;2113;50.946;14.610;2022-08-19T04:58:35;96399.47;;;23.00;65.63
4199;BME280;2113;50.946;14.610;2022-08-19T05:01:04;96407.00;;;23.04;65.21
4199;BME280;2113;50.946;14.610;2022-08-19T05:03:32;96404.75;;;23.00;65.58
4199;BME280;2113;50.946;14.610;2022-08-19T05:06:05;96409.97;;;22.92;65.65
4199;BME280;2113;50.946;14.610;2022-08-19T05:08:34;96407.88;;;22.95;65.83
4199;BME280;2113;50.946;14.610;2022-08-19T05:11:08;96415.19;;;22.83;66.02
4199;BME280;2113;50.946;14.610;2022-08-19T05:13:40;96403.41;;;22.96;65.82
4199;BME280;2113;50.946;14.610;2022-08-19T05:16:10;96413.13;;;22.77;65.80
4199;BME280;2113;50.946;14.610;2022-08-19T05:18:38;96417.13;;;22.81;65.61
4199;BME280;2113;50.946;14.610;2022-08-19T05:21:26;96415.69;;;22.97;65.82
4199;BME280;2113;50.946;14.610;2022-08-19T05:24:12;96433.97;;;22.90;65.39
4199;BME280;2113;50.946;14.610;2022-08-19T05:26:43;96454.34;;;22.90;65.69
4199;BME280;2113;50.946;14.610;2022-08-19T05:29:14;96456.13;;;22.34;67.35
4199;BME280;2113;50.946;14.610;2022-08-19T05:31:43;96468.53;;;22.33;67.36
4199;BME280;2113;50.946;14.610;2022-08-19T05:34:12;96453.19;;;22.37;67.84
4199;BME280;2113;50.946;14.610;2022-08-19T05:36:48;96451.22;;;22.39;67.45
4199;BME280;2113;50.946;14.610;2022-08-19T05:39:19;96453.06;;;22.66;66.81
4199;BME280;2113;50.946;14.610;2022-08-19T05:41:50;96474.06;;;22.77;66.12
4199;BME280;2113;50.946;14.610;2022-08-19T05:44:19;96469.94;;;22.08;68.16
4199;BME280;2113;50.946;14.610;2022-08-19T05:46:48;96488.75;;;22.34;67.76
4199;BME280;2113;50.946;14.610;2022-08-19T05:49:21;96494.47;;;22.10;68.11
4199;BME280;2113;50.946;14.610;2022-08-19T05:51:51;96498.47;;;22.24;67.57
4199;BME280;2113;50.946;14.610;2022-08-19T05:54:19;96500.72;;;22.38;67.39
4199;BME280;2113;50.946;14.610;2022-08-19T05:56:49;96507.28;;;22.05;68.79
4199;BME280;2113;50.946;14.610;2022-08-19T05:59:19;96508.97;;;22.06;68.47
4199;BME280;2113;50.946;14.610;2022-08-19T06:01:51;96518.00;;;21.84;69.93
4199;BME280;2113;50.946;14.610;2022-08-19T06:04:21;96523.59;;;22.00;69.13
4199;BME280;2113;50.946;14.610;2022-08-19T06:06:52;96525.81;;;22.24;68.33
4199;BME280;2113;50.946;14.610;2022-08-19T06:09:21;96525.38;;;22.19;68.64
4199;BME280;2113;50.946;14.610;2022-08-19T06:11:51;96530.13;;;22.06;69.09
4199;BME280;2113;50.946;14.610;2022-08-19T06:14:24;96531.22;;;22.42;67.89
4199;BME280;2113;50.946;14.610;2022-08-19T06:16:54;96537.09;;;22.36;67.99
4199;BME280;2113;50.946;14.610;2022-08-19T06:19:22;96526.31;;;22.57;67.23
4199;BME280;2113;50.946;14.610;2022-08-19T06:21:53;96537.56;;;22.69;66.94
4199;BME280;2113;50.946;14.610;2022-08-19T06:24:22;96531.84;;;22.64;66.67
4199;BME280;2113;50.946;14.610;2022-08-19T06:26:53;96531.59;;;22.95;65.82
4199;BME280;2113;50.946;14.610;2022-08-19T06:29:28;96528.94;;;23.32;64.83
4199;BME280;2113;50.946;14.610;2022-08-19T06:32:00;96527.09;;;23.78;63.24
4199;BME280;2113;50.946;14.610;2022-08-19T06:34:32;96535.19;;;23.77;62.32
4199;BME280;2113;50.946;14.610;2022-08-19T06:37:03;96528.31;;;23.38;63.81
4199;BME280;2113;50.946;14.610;2022-08-19T06:39:34;96530.63;;;23.69;62.93
4199;BME280;2113;50.946;14.610;2022-08-19T06:42:04;96536.13;;;23.40;63.34
4199;BME280;2113;50.946;14.610;2022-08-19T06:44:38;96530.28;;;23.36;63.96
4199;BME280;2113;50.946;14.610;2022-08-19T06:47:13;96540.34;;;23.33;64.19
4199;BME280;2113;50.946;14.610;2022-08-19T06:49:53;96553.44;;;23.16;65.15
4199;BME280;2113;50.946;14.610;2022-08-19T06:52:30;96561.72;;;23.59;63.87
4199;BME280;2113;50.946;14.610;2022-08-19T06:55:02;96559.53;;;23.26;64.61
4199;BME280;2113;50.946;14.610;2022-08-19T06:57:32;96568.56;;;22.96;65.59
4199;BME280;2113;50.946;14.610;2022-08-19T07:00:02;96564.16;;;22.77;66.07
4199;BME280;2113;50.946;14.610;2022-08-19T07:02:30;96575.09;;;23.02;65.59
4199;BME280;2113;50.946;14.610;2022-08-19T07:04:58;96564.63;;;23.38;64.44
4199;BME280;2113;50.946;14.610;2022-08-19T07:07:33;96570.41;;;23.51;64.01
4199;BME280;2113;50.946;14.610;2022-08-19T07:10:03;96580.06;;;23.70;63.12
4199;BME280;2113;50.946;14.610;2022-08-19T07:12:33;96572.47;;;23.57;63.67
4199;BME280;2113;50.946;14.610;2022-08-19T07:15:04;96582.41;;;23.83;62.70
4199;BME280;2113;50.946;14.610;2022-08-19T07:17:35;96593.50;;;23.13;64.55
4199;BME280;2113;50.946;14.610;2022-08-19T07:20:08;96590.63;;;22.87;65.88
4199;BME280;2113;50.946;14.610;2022-08-19T07:22:38;96603.19;;;23.04;65.59
4199;BME280;2113;50.946;14.610;2022-08-19T07:25:07;96602.75;;;22.99;65.71
4199;BME280;2113;50.946;14.610;2022-08-19T07:27:35;96611.50;;;23.10;65.14
4199;BME280;2113;50.946;14.610;2022-08-19T07:30:12;96612.06;;;23.13;65.25
4199;BME280;2113;50.946;14.610;2022-08-19T07:32:41;96612.69;;;22.87;65.93
4199;BME280;2113;50.946;14.610;2022-08-19T07:35:10;96615.03;;;22.91;66.18
4199;BME280;2113;50.946;14.610;2022-08-19T07:37:39;96606.38;;;22.88;65.85
4199;BME280;2113;50.946;14.610;2022-08-19T07:40:12;96624.78;;;23.00;65.60
4199;BME280;2113;50.946;14.610;2022-08-19T07:42:40;96630.03;;;22.72;66.56
4199;BME280;2113;50.946;14.610;2022-08-19T07:45:09;96628.34;;;22.71;66.58
4199;BME280;2113;50.946;14.610;2022-08-19T07:47:37;96625.97;;;22.58;67.28
4199;BME280;2113;50.946;14.610;2022-08-19T07:50:18;96631.00;;;22.61;67.31
4199;BME280;2113;50.946;14.610;2022-08-19T07:52:49;96632.13;;;22.59;67.55
4199;BME280;2113;50.946;14.610;2022-08-19T07:55:20;96636.56;;;22.78;66.99
4199;BME280;2113;50.946;14.610;2022-08-19T07:58:09;96630.94;;;22.91;66.84
4199;BME280;2113;50.946;14.610;2022-08-19T08:00:37;96628.88;;;22.84;66.77
4199;BME280;2113;50.946;14.610;2022-08-19T08:03:05;96620.38;;;22.71;67.26
4199;BME280;2113;50.946;14.610;2022-08-19T08:05:35;96620.63;;;22.87;66.63
4199;BME280;2113;50.946;14.610;2022-08-19T08:08:22;96628.22;;;22.53;67.38
4199;BME280;2113;50.946;14.610;2022-08-19T08:11:10;96636.75;;;22.47;67.68
4199;BME280;2113;50.946;14.610;2022-08-19T08:13:41;96642.72;;;22.59;67.52
4199;BME280;2113;50.946;14.610;2022-08-19T08:16:09;96645.63;;;22.75;66.73
4199;BME280;2113;50.946;14.610;2022-08-19T08:18:40;96641.84;;;22.87;66.42
4199;BME280;2113;50.946;14.610;2022-08-19T08:21:18;96637.66;;;22.75;66.60
4199;BME280;2113;50.946;14.610;2022-08-19T08:23:48;96635.16;;;22.83;66.31
4199;BME280;2113;50.946;14.610;2022-08-19T08:26:20;96637.91;;;22.92;65.91
4199;BME280;2113;50.946;14.610;2022-08-19T08:28:48;96635.69;;;22.77;66.71
4199;BME280;2113;50.946;14.610;2022-08-19T08:31:42;96638.66;;;22.74;67.28
4199;BME280;2113;50.946;14.610;2022-08-19T08:34:12;96632.66;;;22.72;66.74
4199;BME280;2113;50.946;14.610;2022-08-19T08:36:43;96635.44;;;22.71;67.38
4199;BME280;2113;50.946;14.610;2022-08-19T08:39:16;96642.03;;;22.27;69.21
4199;BME280;2113;50.946;14.610;2022-08-19T08:41:51;96644.94;;;22.15;69.58
4199;BME280;2113;50.946;14.610;2022-08-19T08:44:23;96647.19;;;22.39;68.76
4199;BME280;2113;50.946;14.610;2022-08-19T08:46:58;96655.69;;;22.42;68.29
4199;BME280;2113;50.946;14.610;2022-08-19T08:49:32;96652.75;;;22.65;67.55
4199;BME280;2113;50.946;14.610;2022-08-19T08:52:05;96652.19;;;22.61;67.63
4199;BME280;2113;50.946;14.610;2022-08-19T08:54:39;96664.41;;;22.92;66.13
4199;BME280;2113;50.946;14.610;2022-08-19T08:57:26;96659.59;;;23.24;65.07
4199;BME280;2113;50.946;14.610;2022-08-19T09:00:07;96648.19;;;23.24;64.31
4199;BME280;2113;50.946;14.610;2022-08-19T09:02:41;96641.94;;;23.43;64.08
4199;BME280;2113;50.946;14.610;2022-08-19T09:05:10;96634.94;;;23.14;64.64
4199;BME280;2113;50.946;14.610;2022-08-19T09:07:52;96636.22;;;23.10;64.91
4199;BME280;2113;50.946;14.610;2022-08-19T09:10:31;96634.13;;;22.94;65.48
4199;BME280;2113;50.946;14.610;2022-08-19T09:13:05;96624.81;;;22.90;65.62
4199;BME280;2113;50.946;14.610;2022-08-19T09:15:41;96619.56;;;22.61;66.95
4199;BME280;2113;50.946;14.610;2022-08-19T09:18:13;96613.94;;;22.93;66.40
4199;BME280;2113;50.946;14.610;2022-08-19T09:20:46;96604.97;;;23.04;65.73
4199;BME280;2113;50.946;14.610;2022-08-19T09:23:15;96618.59;;;23.74;63.61
4199;BME280;2113;50.946;14.610;2022-08-19T09:25:53;96613.63;;;24.07;62.89
4199;BME280;2113;50.946;14.610;2022-08-19T09:28:24;96614.03;;;23.94;61.83
4199;BME280;2113;50.946;14.610;2022-08-19T09:30:53;96626.94;;;24.25;61.52
4199;BME280;2113;50.946;14.610;2022-08-19T09:33:21;96631.88;;;24.02;62.21
4199;BME280;2113;50.946;14.610;2022-08-19T09:35:50;96644.50;;;23.90;62.29
4199;BME280;2113;50.946;14.610;2022-08-19T09:38:20;96645.38;;;23.53;63.88
4199;BME280;2113;50.946;14.610;2022-08-19T09:40:48;96658.69;;;23.43;64.00
4199;BME280;2113;50.946;14.610;2022-08-19T09:43:18;96667.59;;;23.52;64.21
4199;BME280;2113;50.946;14.610;2022-08-19T09:46:08;96658.47;;;23.64;63.08
4199;BME280;2113;50.946;14.610;2022-08-19T09:48:37;96662.19;;;23.72;62.83
4199;BME280;2113;50.946;14.610;2022-08-19T09:51:07;96675.66;;;23.60;62.95
4199;BME280;2113;50.946;14.610;2022-08-19T09:53:38;96672.91;;;23.52;63.39
4199;BME280;2113;50.946;14.610;2022-08-19T09:56:06;96678.81;;;23.74;62.99
4199;BME280;2113;50.946;14.610;2022-08-19T09:58:36;96686.00;;;24.09;61.94
4199;BME280;2113;50.946;14.610;2022-08-19T10:01:06;96692.19;;;24.28;60.87
4199;BME280;2113;50.946;14.610;2022-08-19T10:03:35;96695.44;;;24.21;61.38
4199;BME280;2113;50.946;14.610;2022-08-19T10:06:05;96706.44;;;24.09;61.43
4199;BME280;2113;50.946;14.610;2022-08-19T10:08:43;96697.50;;;24.46;60.20
4199;BME280;2113;50.946;14.610;2022-08-19T10:11:17;96696.63;;;24.55;60.06
4199;BME280;2113;50.946;14.610;2022-08-19T10:14:03;96701.59;;;24.22;60.87
4199;BME280;2113;50.946;14.610;2022-08-19T10:16:33;96707.44;;;24.26;60.71
4199;BME280;2113;50.946;14.610;2022-08-19T10:19:05;96693.69;;;24.30;60.19
4199;BME280;2113;50.946;14.610;2022-08-19T10:21:35;96686.25;;;24.16;61.29
4199;BME280;2113;50.946;14.610;2022-08-19T10:24:06;96689.25;;;24.31;60.33
4199;BME280;2113;50.946;14.610;2022-08-19T10:26:37;96704.34;;;23.75;62.51
4199;BME280;2113;50.946;14.610;2022-08-19T10:29:09;96699.13;;;23.93;62.01
4199;BME280;2113;50.946;14.610;2022-08-19T10:31:38;96702.56;;;24.03;61.65
4199;BME280;2113;50.946;14.610;2022-08-19T10:34:28;96698.31;;;24.56;60.03
4199;BME280;2113;50.946;14.610;2022-08-19T10:36:57;96707.28;;;24.27;59.65
4199;BME280;2113;50.946;14.610;2022-08-19T10:39:28;96716.09;;;24.10;61.04
4199;BME280;2113;50.946;14.610;2022-08-19T10:42:07;96714.78;;;24.14;60.29
4199;BME280;2113;50.946;14.610;2022-08-19T10:44:38;96715.53;;;23.78;62.31
4199;BME280;2113;50.946;14.610;2022-08-19T10:47:07;96722.59;;;23.50;62.79
4199;BME280;2113;50.946;14.610;2022-08-19T10:49:50;96718.91;;;23.71;62.78
4199;BME280;2113;50.946;14.610;2022-08-19T10:52:38;96728.38;;;23.83;61.68
4199;BME280;2113;50.946;14.610;2022-08-19T10:55:18;96737.22;;;24.01;61.45
4199;BME280;2113;50.946;14.610;2022-08-19T10:58:10;96730.19;;;23.45;63.37
4199;BME280;2113;50.946;14.610;2022-08-19T11:00:41;96740.84;;;23.25;64.10
4199;BME280;2113;50.946;14.610;2022-08-19T11:03:10;96732.63;;;23.19;64.40
4199;BME280;2113;50.946;14.610;2022-08-19T11:05:38;96745.59;;;22.93;65.07
4199;BME280;2113;50.946;14.610;2022-08-19T11:08:07;96750.22;;;23.10;64.66
4199;BME280;2113;50.946;14.610;2022-08-19T11:10:50;96751.59;;;22.75;65.95
4199;BME280;2113;50.946;14.610;2022-08-19T11:13:18;96758.47;;;22.68;66.86
4199;BME280;2113;50.946;14.610;2022-08-19T11:15:47;96760.38;;;22.37;67.44
4199;BME280;2113;50.946;14.610;2022-08-19T11:18:15;96748.25;;;22.54;67.41
4199;BME280;2113;50.946;14.610;2022-08-19T11:20:43;96751.91;;;23.11;65.49
4199;BME280;2113;50.946;14.610;2022-08-19T11:23:11;96745.75;;;23.68;63.71
4199;BME280;2113;50.946;14.610;2022-08-19T11:25:39;96745.81;;;23.86;62.86
4199;BME280;2113;50.946;14.610;2022-08-19T11:28:08;96744.09;;;24.22;62.45
4199;BME280;2113;50.946;14.610;2022-08-19T11:30:36;96730.47;;;24.53;60.77
4199;BME280;2113;50.946;14.610;2022-08-19T11:33:06;96729.22;;;24.29;61.81
4199;BME280;2113;50.946;14.610;2022-08-19T11:35:39;96719.69;;;24.36;61.29
4199;BME280;2113;50.946;14.610;2022-08-19T11:38:07;96734.19;;;23.96;61.82
4199;BME280;2113;50.946;14.610;2022-08-19T11:40:35;96716.03;;;24.19;61.68
4199;BME280;2113;50.946;14.610;2022-08-19T11:43:03;96713.75;;;24.42;60.61
4199;BME280;2113;50.946;14.610;2022-08-19T11:45:31;96716.34;;;24.34;60.26
4199;BME280;2113;50.946;14.610;2022-08-19T11:47:59;96715.88;;;24.39;60.12
4199;BME280;2113;50.946;14.610;2022-08-19T11:50:29;96714.81;;;24.50;59.47
4199;BME280;2113;50.946;14.610;2022-08-19T11:52:57;96724.25;;;24.62;59.74
4199;BME280;2113;50.946;14.610;2022-08-19T11:55:25;96720.22;;;25.38;57.69
4199;BME280;2113;50.946;14.610;2022-08-19T11:57:53;96725.53;;;25.38;56.73
4199;BME280;2113;50.946;14.610;2022-08-19T12:00:21;96728.34;;;25.71;56.02
4199;BME280;2113;50.946;14.610;2022-08-19T12:02:59;96716.25;;;25.76;55.23
4199;BME280;2113;50.946;14.610;2022-08-19T12:05:27;96714.94;;;25.89;54.74
4199;BME280;2113;50.946;14.610;2022-08-19T12:08:02;96710.13;;;25.50;55.41
4199;BME280;2113;50.946;14.610;2022-08-19T12:10:30;96715.59;;;25.48;56.09
4199;BME280;2113;50.946;14.610;2022-08-19T12:12:59;96713.03;;;25.99;54.85
4199;BME280;2113;50.946;14.610;2022-08-19T12:15:35;96704.53;;;26.04;55.39
4199;BME280;2113;50.946;14.610;2022-08-19T12:18:10;96702.13;;;26.35;53.93
4199;BME280;2113;50.946;14.610;2022-08-19T12:20:42;96703.38;;;26.82;52.19
4199;BME280;2113;50.946;14.610;2022-08-19T12:23:11;96703.34;;;27.14;51.81
4199;BME280;2113;50.946;14.610;2022-08-19T12:25:44;96697.69;;;27.26;51.47
4199;BME280;2113;50.946;14.610;2022-08-19T12:28:15;96697.25;;;28.09;48.73
4199;BME280;2113;50.946;14.610;2022-08-19T12:31:08;96702.03;;;27.27;50.79
4199;BME280;2113;50.946;14.610;2022-08-19T12:33:40;96705.00;;;27.24;51.15
4199;BME280;2113;50.946;14.610;2022-08-19T12:36:12;96704.66;;;27.19;51.42
4199;BME280;2113;50.946;14.610;2022-08-19T12:38:42;96705.66;;;27.34;49.94
4199;BME280;2113;50.946;14.610;2022-08-19T12:41:12;96713.00;;;27.24;50.00
4199;BME280;2113;50.946;14.610;2022-08-19T12:43:41;96711.09;;;27.65;49.78
4199;BME280;2113;50.946;14.610;2022-08-19T12:46:11;96696.75;;;28.06;48.95
4199;BME280;2113;50.946;14.610;2022-08-19T12:48:45;96694.69;;;28.39;48.41
4199;BME280;2113;50.946;14.610;2022-08-19T12:51:18;96697.84;;;27.80;47.97
4199;BME280;2113;50.946;14.610;2022-08-19T12:53:48;96693.13;;;28.30;47.35
4199;BME280;2113;50.946;14.610;2022-08-19T12:56:16;96703.69;;;29.16;45.11
4199;BME280;2113;50.946;14.610;2022-08-19T12:58:49;96693.34;;;29.13;44.56
4199;BME280;2113;50.946;14.610;2022-08-19T13:01:19;96690.03;;;29.40;45.06
4199;BME280;2113;50.946;14.610;2022-08-19T13:03:49;96687.97;;;28.75;45.74
4199;BME280;2113;50.946;14.610;2022-08-19T13:06:19;96683.22;;;29.82;44.25
4199;BME280;2113;50.946;14.610;2022-08-19T13:08:49;96692.63;;;29.19;44.98
4199;BME280;2113;50.946;14.610;2022-08-19T13:11:20;96676.22;;;29.22;45.22
4199;BME280;2113;50.946;14.610;2022-08-19T13:13:52;96665.59;;;29.43;44.46
4199;BME280;2113;50.946;14.610;2022-08-19T13:16:21;96669.00;;;29.37;45.75
4199;BME280;2113;50.946;14.610;2022-08-19T13:18:50;96669.56;;;29.47;44.79
4199;BME280;2113;50.946;14.610;2022-08-19T13:21:19;96674.09;;;29.32;45.30
4199;BME280;2113;50.946;14.610;2022-08-19T13:23:50;96669.38;;;28.58;45.84
4199;BME280;2113;50.946;14.610;2022-08-19T13:26:18;96684.53;;;28.11;47.00
4199;BME280;2113;50.946;14.610;2022-08-19T13:28:47;96684.13;;;27.83;47.99
4199;BME280;2113;50.946;14.610;2022-08-19T13:31:35;96683.59;;;28.27;47.19
4199;BME280;2113;50.946;14.610;2022-08-19T13:34:27;96672.56;;;28.30;46.53